createdAt,value
2018-11-02T00:00:51.286Z,1003.81
2018-11-02T00:01:51.278Z,1003.80
2018-11-02T00:02:51.272Z,1003.79
2018-11-02T00:03:51.265Z,1003.80
2018-11-02T00:04:51.258Z,1003.78
2018-11-02T00:05:51.251Z,1003.79
2018-11-02T00:06:51.244Z,1003.87
2018-11-02T00:07:51.240Z,1003.87
2018-11-02T00:08:51.232Z,1003.85
2018-11-02T00:09:51.225Z,1003.85
2018-11-02T00:10:51.217Z,1003.87
2018-11-02T00:11:51.212Z,1003.85
2018-11-02T00:12:51.205Z,1003.89
2018-11-02T00:13:51.199Z,1003.86
2018-11-02T00:14:51.194Z,1003.85
2018-11-02T00:15:51.184Z,1003.89
2018-11-02T00:16:51.179Z,1003.86
2018-11-02T00:17:51.171Z,1003.92
2018-11-02T00:18:51.165Z,1003.89
2018-11-02T00:19:51.160Z,1003.91
2018-11-02T00:20:51.152Z,1003.90
2018-11-02T00:21:51.174Z,1003.91
2018-11-02T00:22:51.139Z,1003.93
2018-11-02T00:23:51.131Z,1003.95
2018-11-02T00:24:51.126Z,1003.97
2018-11-02T00:25:51.118Z,1004.00
2018-11-02T00:26:51.113Z,1004.00
2018-11-02T00:27:51.105Z,1004.02
2018-11-02T00:28:51.098Z,1004.08
2018-11-02T00:29:51.091Z,1004.07
2018-11-02T00:30:51.098Z,1004.17
2018-11-02T00:31:51.197Z,1004.18
2018-11-02T00:32:51.073Z,1004.17
2018-11-02T00:33:51.065Z,1004.16
2018-11-02T00:34:51.064Z,1004.19
2018-11-02T00:35:51.052Z,1004.20
2018-11-02T00:36:51.047Z,1004.16
2018-11-02T00:37:51.039Z,1004.19
2018-11-02T00:38:51.035Z,1004.22
2018-11-02T00:39:51.026Z,1004.24
2018-11-02T00:40:51.021Z,1004.28
2018-11-02T00:41:51.013Z,1004.23
2018-11-02T00:42:51.006Z,1004.24
2018-11-02T00:43:51.026Z,1004.24
2018-11-02T00:44:50.994Z,1004.27
2018-11-02T00:45:50.986Z,1004.30
2018-11-02T00:46:50.979Z,1004.29
2018-11-02T00:47:50.975Z,1004.28
2018-11-02T00:48:50.968Z,1004.33
2018-11-02T00:49:50.961Z,1004.35
2018-11-02T00:50:50.954Z,1004.36
2018-11-02T00:51:50.949Z,1004.36
2018-11-02T00:52:50.940Z,1004.39
2018-11-02T00:53:50.933Z,1004.41
2018-11-02T00:54:50.927Z,1004.45
2018-11-02T00:55:50.920Z,1004.42
2018-11-02T00:56:50.918Z,1004.45
2018-11-02T00:57:50.908Z,1004.43
2018-11-02T00:58:50.901Z,1004.40
2018-11-02T00:59:50.894Z,1004.41
2018-11-02T01:00:50.890Z,1004.49
2018-11-02T01:01:50.881Z,1004.46
2018-11-02T01:02:50.877Z,1004.45
2018-11-02T01:03:50.868Z,1004.48
2018-11-02T01:04:50.862Z,1004.50
2018-11-02T01:05:50.856Z,1004.54
2018-11-02T01:06:50.849Z,1004.57
2018-11-02T01:07:50.842Z,1004.50
2018-11-02T01:08:50.836Z,1004.54
2018-11-02T01:09:50.832Z,1004.58
2018-11-02T01:10:50.824Z,1004.60
2018-11-02T01:11:50.816Z,1004.55
2018-11-02T01:12:50.811Z,1004.58
2018-11-02T01:13:50.806Z,1004.54
2018-11-02T01:14:50.797Z,1004.51
2018-11-02T01:15:50.790Z,1004.54
2018-11-02T01:16:50.910Z,1004.52
2018-11-02T01:17:50.780Z,1004.52
2018-11-02T01:18:50.772Z,1004.57
2018-11-02T01:19:50.765Z,1004.51
2018-11-02T01:20:50.760Z,1004.51
2018-11-02T01:21:50.752Z,1004.51
2018-11-02T01:22:50.746Z,1004.50
2018-11-02T01:23:50.739Z,1004.48
2018-11-02T01:24:50.733Z,1004.54
2018-11-02T01:25:50.726Z,1004.52
2018-11-02T01:26:50.719Z,1004.49
2018-11-02T01:27:50.713Z,1004.49
2018-11-02T01:28:50.717Z,1004.51
2018-11-02T01:29:50.702Z,1004.53
2018-11-02T01:30:50.695Z,1004.53
2018-11-02T01:31:50.687Z,1004.51
2018-11-02T01:32:50.681Z,1004.55
2018-11-02T01:33:50.675Z,1004.54
2018-11-02T01:34:50.667Z,1004.54
2018-11-02T01:35:50.662Z,1004.53
2018-11-02T01:36:50.658Z,1004.50
2018-11-02T01:37:50.648Z,1004.51
2018-11-02T01:38:50.643Z,1004.50
2018-11-02T01:39:50.635Z,1004.50
2018-11-02T01:40:50.631Z,1004.44
2018-11-02T01:41:50.622Z,1004.44
2018-11-02T01:42:50.615Z,1004.36
2018-11-02T01:43:50.609Z,1004.42
2018-11-02T01:44:50.605Z,1004.32
2018-11-02T01:45:50.595Z,1004.32
2018-11-02T01:46:50.591Z,1004.29
2018-11-02T01:47:50.582Z,1004.20
2018-11-02T01:48:50.576Z,1004.20
2018-11-02T01:49:50.568Z,1004.16
2018-11-02T01:50:50.562Z,1004.22
2018-11-02T01:51:50.555Z,1004.26
2018-11-02T01:52:50.549Z,1004.25
2018-11-02T01:53:50.541Z,1004.30
2018-11-02T01:54:50.535Z,1004.32
2018-11-02T01:55:50.533Z,1004.34
2018-11-02T01:56:50.525Z,1004.47
2018-11-02T01:57:50.516Z,1004.42
2018-11-02T01:58:50.509Z,1004.46
2018-11-02T01:59:50.504Z,1004.50
2018-11-02T02:00:50.496Z,1004.53
2018-11-02T02:01:50.489Z,1004.63
2018-11-02T02:02:50.482Z,1004.62
2018-11-02T02:03:50.475Z,1004.65
2018-11-02T02:04:50.469Z,1004.67
2018-11-02T02:05:50.461Z,1004.67
2018-11-02T02:06:50.455Z,1004.67
2018-11-02T02:07:50.450Z,1004.75
2018-11-02T02:08:50.447Z,1004.78
2018-11-02T02:09:50.435Z,1004.77
2018-11-02T02:10:50.428Z,1004.78
2018-11-02T02:11:50.423Z,1004.78
2018-11-02T02:12:50.416Z,1004.81
2018-11-02T02:13:50.408Z,1004.81
2018-11-02T02:14:50.403Z,1004.84
2018-11-02T02:15:50.396Z,1004.84
2018-11-02T02:16:50.389Z,1004.86
2018-11-02T02:17:50.380Z,1004.86
2018-11-02T02:18:50.375Z,1004.87
2018-11-02T02:19:50.368Z,1004.89
2018-11-02T02:20:50.362Z,1004.92
2018-11-02T02:21:50.355Z,1004.90
2018-11-02T02:22:50.349Z,1004.88
2018-11-02T02:23:50.343Z,1004.90
2018-11-02T02:24:50.336Z,1004.90
2018-11-02T02:25:50.328Z,1004.90
2018-11-02T02:26:50.322Z,1004.93
2018-11-02T02:27:50.317Z,1004.93
2018-11-02T02:28:50.309Z,1004.91
2018-11-02T02:29:50.305Z,1004.98
2018-11-02T02:30:50.296Z,1004.87
2018-11-02T02:31:50.290Z,1004.90
2018-11-02T02:32:50.282Z,1004.91
2018-11-02T02:33:50.275Z,1004.86
2018-11-02T02:34:50.270Z,1004.83
2018-11-02T02:35:50.268Z,1004.85
2018-11-02T02:36:50.258Z,1004.89
2018-11-02T02:37:50.248Z,1004.89
2018-11-02T02:38:50.242Z,1004.94
2018-11-02T02:39:50.236Z,1004.92
2018-11-02T02:40:50.230Z,1004.90
2018-11-02T02:41:50.222Z,1004.90
2018-11-02T02:42:50.216Z,1004.88
2018-11-02T02:43:50.211Z,1004.95
2018-11-02T02:44:50.206Z,1004.95
2018-11-02T02:45:50.203Z,1004.99
2018-11-02T02:46:50.189Z,1005.02
2018-11-02T02:47:50.185Z,1005.01
2018-11-02T02:48:50.189Z,1005.06
2018-11-02T02:49:50.169Z,1004.97
2018-11-02T02:50:50.163Z,1005.05
2018-11-02T02:51:50.159Z,1005.10
2018-11-02T02:52:50.150Z,1005.02
2018-11-02T02:53:50.143Z,1005.06
2018-11-02T02:54:50.140Z,1005.07
2018-11-02T02:55:50.129Z,1005.09
2018-11-02T02:56:50.124Z,1005.03
2018-11-02T02:57:50.119Z,1005.02
2018-11-02T02:58:50.110Z,1005.08
2018-11-02T02:59:50.104Z,1005.08
2018-11-02T03:00:50.097Z,1005.13
2018-11-02T03:01:50.090Z,1005.10
2018-11-02T03:02:50.083Z,1005.13
2018-11-02T03:03:50.077Z,1005.17
2018-11-02T03:04:50.072Z,1005.21
2018-11-02T03:05:50.067Z,1005.22
2018-11-02T03:06:50.057Z,1005.26
2018-11-02T03:07:50.050Z,1005.31
2018-11-02T03:08:50.050Z,1005.29
2018-11-02T03:09:50.036Z,1005.34
2018-11-02T03:10:50.165Z,1005.37
2018-11-02T03:11:50.024Z,1005.39
2018-11-02T03:12:50.017Z,1005.37
2018-11-02T03:13:50.012Z,1005.42
2018-11-02T03:14:50.004Z,1005.36
2018-11-02T03:15:49.997Z,1005.39
2018-11-02T03:16:49.992Z,1005.37
2018-11-02T03:17:49.986Z,1005.38
2018-11-02T03:18:50.138Z,1005.38
2018-11-02T03:19:50.001Z,1005.40
2018-11-02T03:20:49.984Z,1005.50
2018-11-02T03:21:49.958Z,1005.44
2018-11-02T03:22:49.994Z,1005.41
2018-11-02T03:23:49.946Z,1005.48
2018-11-02T03:24:49.942Z,1005.49
2018-11-02T03:25:49.931Z,1005.52
2018-11-02T03:26:49.926Z,1005.57
2018-11-02T03:27:49.920Z,1005.60
2018-11-02T03:28:49.914Z,1005.58
2018-11-02T03:29:49.906Z,1005.62
2018-11-02T03:30:49.900Z,1005.61
2018-11-02T03:31:49.894Z,1005.69
2018-11-02T03:32:49.887Z,1005.63
2018-11-02T03:33:49.880Z,1005.70
2018-11-02T03:34:49.873Z,1005.74
2018-11-02T03:35:49.868Z,1005.76
2018-11-02T03:36:49.860Z,1005.75
2018-11-02T03:37:49.854Z,1005.79
2018-11-02T03:38:49.846Z,1005.79
2018-11-02T03:39:49.840Z,1005.88
2018-11-02T03:40:49.835Z,1005.79
2018-11-02T03:41:49.827Z,1005.86
2018-11-02T03:42:49.823Z,1005.88
2018-11-02T03:43:49.815Z,1005.86
2018-11-02T03:44:49.868Z,1005.89
2018-11-02T03:45:49.801Z,1005.85
2018-11-02T03:46:49.794Z,1005.92
2018-11-02T03:47:49.787Z,1005.93
2018-11-02T03:48:49.832Z,1005.92
2018-11-02T03:49:49.776Z,1005.91
2018-11-02T03:50:49.769Z,1005.93
2018-11-02T03:51:49.762Z,1005.90
2018-11-02T03:52:49.756Z,1005.97
2018-11-02T03:53:49.748Z,1005.95
2018-11-02T03:54:49.805Z,1005.86
2018-11-02T03:55:49.768Z,1005.98
2018-11-02T03:56:49.759Z,1005.98
2018-11-02T03:57:49.724Z,1005.97
2018-11-02T03:58:49.715Z,1005.99
2018-11-02T03:59:49.711Z,1006.00
2018-11-02T04:00:49.703Z,1006.19
2018-11-02T04:01:49.695Z,1006.03
2018-11-02T04:02:49.689Z,1006.08
2018-11-02T04:03:49.683Z,1006.05
2018-11-02T04:04:49.677Z,1006.07
2018-11-02T04:05:49.669Z,1006.10
2018-11-02T04:06:49.664Z,1006.11
2018-11-02T04:07:49.660Z,1006.18
2018-11-02T04:08:49.650Z,1006.17
2018-11-02T04:09:49.644Z,1006.17
2018-11-02T04:10:49.637Z,1006.14
2018-11-02T04:11:49.630Z,1006.17
2018-11-02T04:12:49.625Z,1006.21
2018-11-02T04:13:49.616Z,1006.22
2018-11-02T04:14:49.609Z,1006.21
2018-11-02T04:15:49.605Z,1006.25
2018-11-02T04:16:49.645Z,1006.30
2018-11-02T04:17:49.590Z,1006.27
2018-11-02T04:18:49.585Z,1006.30
2018-11-02T04:19:49.585Z,1006.43
2018-11-02T04:20:49.572Z,1006.35
2018-11-02T04:21:49.568Z,1006.34
2018-11-02T04:22:49.559Z,1006.38
2018-11-02T04:23:49.554Z,1006.39
2018-11-02T04:24:49.548Z,1006.48
2018-11-02T04:25:49.562Z,1006.44
2018-11-02T04:26:49.533Z,1006.50
2018-11-02T04:27:49.526Z,1006.55
2018-11-02T04:28:49.519Z,1006.53
2018-11-02T04:29:49.511Z,1006.50
2018-11-02T04:30:49.563Z,1006.51
2018-11-02T04:31:49.499Z,1006.67
2018-11-02T04:32:49.493Z,1006.61
2018-11-02T04:33:49.489Z,1006.60
2018-11-02T04:34:49.511Z,1006.67
2018-11-02T04:35:49.488Z,1006.60
2018-11-02T04:36:49.466Z,1006.71
2018-11-02T04:37:49.459Z,1006.67
2018-11-02T04:38:49.453Z,1006.68
2018-11-02T04:39:49.445Z,1006.70
2018-11-02T04:40:49.440Z,1006.68
2018-11-02T04:41:49.433Z,1006.68
2018-11-02T04:42:49.427Z,1006.77
2018-11-02T04:43:49.420Z,1006.78
2018-11-02T04:44:49.413Z,1006.78
2018-11-02T04:45:49.406Z,1006.90
2018-11-02T04:46:49.398Z,1006.86
2018-11-02T04:47:49.392Z,1007.07
2018-11-02T04:48:49.385Z,1006.82
2018-11-02T04:49:49.382Z,1006.90
2018-11-02T04:50:49.383Z,1006.91
2018-11-02T04:51:49.368Z,1007.00
2018-11-02T04:52:49.366Z,1006.96
2018-11-02T04:53:49.351Z,1006.92
2018-11-02T04:54:49.343Z,1006.98
2018-11-02T04:55:49.338Z,1007.04
2018-11-02T04:56:49.334Z,1007.13
2018-11-02T04:57:49.324Z,1007.09
2018-11-02T04:58:49.324Z,1007.05
2018-11-02T04:59:49.311Z,1007.05
2018-11-02T05:00:49.303Z,1007.17
2018-11-02T05:01:49.300Z,1007.11
2018-11-02T05:02:49.289Z,1007.18
2018-11-02T05:03:49.285Z,1007.20
2018-11-02T05:04:49.278Z,1007.25
2018-11-02T05:05:49.268Z,1007.33
2018-11-02T05:06:49.262Z,1007.34
2018-11-02T05:07:49.255Z,1007.38
2018-11-02T05:08:49.248Z,1007.39
2018-11-02T05:09:49.279Z,1007.45
2018-11-02T05:10:49.235Z,1007.50
2018-11-02T05:11:49.227Z,1007.56
2018-11-02T05:12:49.219Z,1007.50
2018-11-02T05:13:49.211Z,1007.59
2018-11-02T05:14:49.205Z,1007.57
2018-11-02T05:15:49.197Z,1007.64
2018-11-02T05:16:49.196Z,1007.69
2018-11-02T05:17:49.183Z,1007.73
2018-11-02T05:18:49.176Z,1007.70
2018-11-02T05:19:49.168Z,1007.74
2018-11-02T05:20:49.163Z,1007.78
2018-11-02T05:21:49.154Z,1007.83
2018-11-02T05:22:49.149Z,1007.82
2018-11-02T05:23:49.149Z,1007.83
2018-11-02T05:24:49.133Z,1007.84
2018-11-02T05:25:49.125Z,1007.86
2018-11-02T05:26:49.119Z,1007.94
2018-11-02T05:27:49.111Z,1007.99
2018-11-02T05:28:49.105Z,1007.83
2018-11-02T05:29:49.097Z,1008.08
2018-11-02T05:30:49.090Z,1007.93
2018-11-02T05:31:49.121Z,1007.89
2018-11-02T05:32:49.075Z,1007.98
2018-11-02T05:33:49.067Z,1007.99
2018-11-02T05:34:49.059Z,1007.97
2018-11-02T05:35:49.053Z,1008.09
2018-11-02T05:36:49.046Z,1008.12
2018-11-02T05:37:49.039Z,1008.11
2018-11-02T05:38:49.030Z,1008.11
2018-11-02T05:39:49.025Z,1008.16
2018-11-02T05:40:49.016Z,1008.16
2018-11-02T05:41:49.008Z,1008.22
2018-11-02T05:42:49.001Z,1008.25
2018-11-02T05:43:48.994Z,1008.23
2018-11-02T05:44:48.988Z,1008.24
2018-11-02T05:45:48.983Z,1008.35
2018-11-02T05:46:48.972Z,1008.36
2018-11-02T05:47:48.978Z,1008.41
2018-11-02T05:48:48.960Z,1008.43
2018-11-02T05:49:48.950Z,1008.44
2018-11-02T05:50:48.949Z,1008.51
2018-11-02T05:51:48.940Z,1008.47
2018-11-02T05:52:48.929Z,1008.52
2018-11-02T05:53:48.921Z,1008.55
2018-11-02T05:54:48.912Z,1008.60
2018-11-02T05:55:48.910Z,1008.58
2018-11-02T05:56:48.899Z,1008.62
2018-11-02T05:57:48.891Z,1008.61
2018-11-02T05:58:48.890Z,1008.69
2018-11-02T05:59:48.876Z,1008.69
2018-11-02T06:00:48.869Z,1008.70
2018-11-02T06:01:48.861Z,1008.69
2018-11-02T06:02:48.870Z,1008.77
2018-11-02T06:03:48.848Z,1008.73
2018-11-02T06:04:48.840Z,1008.75
2018-11-02T06:05:48.831Z,1008.79
2018-11-02T06:06:48.829Z,1008.82
2018-11-02T06:07:48.845Z,1008.85
2018-11-02T06:08:48.810Z,1008.82
2018-11-02T06:09:48.802Z,1008.89
2018-11-02T06:10:48.795Z,1008.89
2018-11-02T06:11:48.788Z,1008.93
2018-11-02T06:12:48.783Z,1009.01
2018-11-02T06:13:48.774Z,1008.97
2018-11-02T06:14:48.766Z,1009.00
2018-11-02T06:15:48.759Z,1009.02
2018-11-02T06:16:48.822Z,1009.07
2018-11-02T06:17:48.744Z,1009.06
2018-11-02T06:18:48.736Z,1009.10
2018-11-02T06:19:48.729Z,1009.13
2018-11-02T06:20:48.722Z,1009.13
2018-11-02T06:21:48.714Z,1009.16
2018-11-02T06:22:48.708Z,1009.18
2018-11-02T06:23:48.703Z,1009.24
2018-11-02T06:24:48.733Z,1009.25
2018-11-02T06:25:48.685Z,1009.24
2018-11-02T06:26:48.677Z,1009.27
2018-11-02T06:27:48.671Z,1009.33
2018-11-02T06:28:48.665Z,1009.34
2018-11-02T06:29:48.656Z,1009.36
2018-11-02T06:30:48.649Z,1009.40
2018-11-02T06:31:48.641Z,1009.45
2018-11-02T06:32:48.775Z,1009.50
2018-11-02T06:33:48.629Z,1009.46
2018-11-02T06:34:48.619Z,1009.50
2018-11-02T06:35:48.612Z,1009.52
2018-11-02T06:36:48.606Z,1009.58
2018-11-02T06:37:48.600Z,1009.54
2018-11-02T06:38:48.632Z,1009.54
2018-11-02T06:39:48.586Z,1009.59
2018-11-02T06:40:48.577Z,1009.60
2018-11-02T06:41:48.568Z,1009.65
2018-11-02T06:42:48.563Z,1009.68
2018-11-02T06:43:48.576Z,1009.68
2018-11-02T06:44:48.619Z,1009.72
2018-11-02T06:45:48.539Z,1009.76
2018-11-02T06:46:48.533Z,1009.79
2018-11-02T06:47:48.525Z,1009.82
2018-11-02T06:48:48.520Z,1009.83
2018-11-02T06:49:48.511Z,1009.83
2018-11-02T06:50:48.523Z,1009.87
2018-11-02T06:51:48.497Z,1009.86
2018-11-02T06:52:48.488Z,1009.91
2018-11-02T06:53:48.484Z,1009.92
2018-11-02T06:54:48.475Z,1009.96
2018-11-02T06:55:48.467Z,1009.94
2018-11-02T06:56:48.460Z,1009.94
2018-11-02T06:57:48.453Z,1009.95
2018-11-02T06:58:48.445Z,1009.99
2018-11-02T06:59:48.652Z,1009.97
2018-11-02T07:00:48.432Z,1010.06
2018-11-02T07:01:48.421Z,1010.08
2018-11-02T07:02:48.416Z,1010.14
2018-11-02T07:03:48.408Z,1010.17
2018-11-02T07:04:48.439Z,1010.18
2018-11-02T07:05:48.393Z,1010.21
2018-11-02T07:06:48.389Z,1010.22
2018-11-02T07:07:48.465Z,1010.28
2018-11-02T07:08:48.372Z,1010.32
2018-11-02T07:09:48.365Z,1010.36
2018-11-02T07:10:48.357Z,1010.38
2018-11-02T07:11:48.351Z,1010.43
2018-11-02T07:12:48.345Z,1010.42
2018-11-02T07:13:48.335Z,1010.50
2018-11-02T07:14:48.331Z,1010.48
2018-11-02T07:15:48.322Z,1010.52
2018-11-02T07:16:48.314Z,1010.52
2018-11-02T07:17:48.308Z,1010.56
2018-11-02T07:18:48.300Z,1010.59
2018-11-02T07:19:48.293Z,1010.64
2018-11-02T07:20:48.288Z,1010.63
2018-11-02T07:21:48.277Z,1010.70
2018-11-02T07:22:48.270Z,1010.68
2018-11-02T07:23:48.284Z,1010.71
2018-11-02T07:24:48.310Z,1010.79
2018-11-02T07:25:48.249Z,1010.79
2018-11-02T07:26:48.242Z,1010.83
2018-11-02T07:27:48.234Z,1010.85
2018-11-02T07:28:48.227Z,1010.86
2018-11-02T07:29:48.221Z,1010.86
2018-11-02T07:30:48.213Z,1010.90
2018-11-02T07:31:48.206Z,1010.93
2018-11-02T07:32:48.200Z,1011.00
2018-11-02T07:33:48.191Z,1010.97
2018-11-02T07:34:48.184Z,1010.98
2018-11-02T07:35:48.177Z,1010.98
2018-11-02T07:36:48.171Z,1010.99
2018-11-02T07:37:48.162Z,1010.98
2018-11-02T07:38:48.155Z,1011.03
2018-11-02T07:39:48.148Z,1011.00
2018-11-02T07:40:48.142Z,1011.02
2018-11-02T07:41:48.135Z,1011.03
2018-11-02T07:42:48.127Z,1011.01
2018-11-02T07:43:48.121Z,1011.06
2018-11-02T07:44:48.115Z,1011.01
2018-11-02T07:45:48.106Z,1011.00
2018-11-02T07:46:48.100Z,1011.04
2018-11-02T07:47:48.280Z,1011.03
2018-11-02T07:48:48.086Z,1011.03
2018-11-02T07:49:48.078Z,1011.04
2018-11-02T07:50:48.073Z,1011.08
2018-11-02T07:51:48.065Z,1011.17
2018-11-02T07:52:48.061Z,1011.14
2018-11-02T07:53:48.054Z,1011.20
2018-11-02T07:54:48.044Z,1011.23
2018-11-02T07:55:48.038Z,1011.28
2018-11-02T07:56:48.033Z,1011.29
2018-11-02T07:57:48.025Z,1011.31
2018-11-02T07:58:48.018Z,1011.35
2018-11-02T07:59:48.011Z,1011.38
2018-11-02T08:00:48.043Z,1011.38
2018-11-02T08:01:48.036Z,1011.40
2018-11-02T08:02:47.993Z,1011.47
2018-11-02T08:03:47.985Z,1011.43
2018-11-02T08:04:47.978Z,1011.42
2018-11-02T08:05:47.991Z,1011.45
2018-11-02T08:06:47.967Z,1011.47
2018-11-02T08:07:47.958Z,1011.45
2018-11-02T08:08:47.951Z,1011.49
2018-11-02T08:09:47.944Z,1011.48
2018-11-02T08:10:47.936Z,1011.47
2018-11-02T08:11:47.930Z,1011.52
2018-11-02T08:12:47.924Z,1011.51
2018-11-02T08:13:47.917Z,1011.50
2018-11-02T08:14:47.911Z,1011.51
2018-11-02T08:15:47.905Z,1011.54
2018-11-02T08:16:47.899Z,1011.59
2018-11-02T08:17:47.935Z,1011.60
2018-11-02T08:18:47.889Z,1011.63
2018-11-02T08:19:47.879Z,1011.61
2018-11-02T08:20:47.874Z,1011.63
2018-11-02T08:21:47.866Z,1011.65
2018-11-02T08:22:47.861Z,1011.67
2018-11-02T08:23:47.854Z,1011.68
2018-11-02T08:24:47.850Z,1011.68
2018-11-02T08:25:47.841Z,1011.71
2018-11-02T08:26:47.835Z,1011.69
2018-11-02T08:27:47.830Z,1011.69
2018-11-02T08:28:47.823Z,1011.74
2018-11-02T08:29:47.816Z,1011.79
2018-11-02T08:30:47.810Z,1011.74
2018-11-02T08:31:47.804Z,1011.80
2018-11-02T08:32:47.798Z,1011.77
2018-11-02T08:33:47.791Z,1011.77
2018-11-02T08:34:47.787Z,1011.76
2018-11-02T08:35:47.780Z,1011.83
2018-11-02T08:36:47.774Z,1011.84
2018-11-02T08:37:47.767Z,1011.84
2018-11-02T08:38:47.762Z,1011.83
2018-11-02T08:39:47.755Z,1011.87
2018-11-02T08:40:47.756Z,1011.90
2018-11-02T08:41:47.742Z,1011.86
2018-11-02T08:42:47.737Z,1011.86
2018-11-02T08:43:47.731Z,1011.86
2018-11-02T08:44:47.725Z,1011.88
2018-11-02T08:45:47.724Z,1011.89
2018-11-02T08:46:47.713Z,1011.96
2018-11-02T08:47:47.708Z,1011.95
2018-11-02T08:48:47.703Z,1011.99
2018-11-02T08:49:47.696Z,1011.99
2018-11-02T08:50:47.694Z,1012.01
2018-11-02T08:51:47.687Z,1011.99
2018-11-02T08:52:47.683Z,1012.06
2018-11-02T08:53:47.676Z,1012.02
2018-11-02T08:54:47.670Z,1011.98
2018-11-02T08:55:47.666Z,1011.98
2018-11-02T08:56:47.663Z,1012.03
2018-11-02T08:57:47.738Z,1012.02
2018-11-02T08:58:47.829Z,1012.01
2018-11-02T08:59:47.776Z,1012.01
2018-11-02T09:00:47.639Z,1012.02
2018-11-02T09:01:47.632Z,1012.03
2018-11-02T09:02:47.627Z,1012.03
2018-11-02T09:03:47.625Z,1012.12
2018-11-02T09:04:47.621Z,1012.09
2018-11-02T09:05:47.610Z,1012.10
2018-11-02T09:06:47.604Z,1012.16
2018-11-02T09:07:47.599Z,1012.19
2018-11-02T09:08:47.593Z,1012.20
2018-11-02T09:09:47.587Z,1012.23
2018-11-02T09:10:47.581Z,1012.30
2018-11-02T09:11:47.576Z,1012.35
2018-11-02T09:12:47.570Z,1012.32
2018-11-02T09:13:47.562Z,1012.30
2018-11-02T09:14:47.557Z,1012.37
2018-11-02T09:15:47.552Z,1012.38
2018-11-02T09:16:47.545Z,1012.40
2018-11-02T09:17:47.539Z,1012.39
2018-11-02T09:18:47.676Z,1012.39
2018-11-02T09:19:47.527Z,1012.41
2018-11-02T09:20:47.522Z,1012.42
2018-11-02T09:21:47.514Z,1012.42
2018-11-02T09:22:47.509Z,1012.40
2018-11-02T09:23:47.503Z,1012.45
2018-11-02T09:24:47.500Z,1012.43
2018-11-02T09:25:47.493Z,1012.49
2018-11-02T09:26:47.487Z,1012.46
2018-11-02T09:27:47.594Z,1012.44
2018-11-02T09:28:47.477Z,1012.47
2018-11-02T09:29:47.467Z,1012.50
2018-11-02T09:30:47.462Z,1012.52
2018-11-02T09:31:47.458Z,1012.58
2018-11-02T09:32:47.453Z,1012.59
2018-11-02T09:33:47.447Z,1012.59
2018-11-02T09:34:47.441Z,1012.60
2018-11-02T09:35:47.436Z,1012.65
2018-11-02T09:36:47.431Z,1012.62
2018-11-02T09:37:47.424Z,1012.68
2018-11-02T09:38:47.419Z,1012.68
2018-11-02T09:39:47.415Z,1012.72
2018-11-02T09:40:47.410Z,1012.64
2018-11-02T09:41:47.403Z,1012.67
2018-11-02T09:42:47.484Z,1012.70
2018-11-02T09:43:47.395Z,1012.74
2018-11-02T09:44:47.389Z,1012.72
2018-11-02T09:45:47.450Z,1012.75
2018-11-02T09:46:47.378Z,1012.77
2018-11-02T09:47:47.374Z,1012.82
2018-11-02T09:48:47.369Z,1012.84
2018-11-02T09:49:47.363Z,1012.85
2018-11-02T09:50:47.357Z,1012.76
2018-11-02T09:51:47.527Z,1012.77
2018-11-02T09:52:47.347Z,1012.79
2018-11-02T09:53:47.342Z,1012.80
2018-11-02T09:54:47.336Z,1012.80
2018-11-02T09:55:47.332Z,1012.79
2018-11-02T09:56:47.327Z,1012.82
2018-11-02T09:57:47.411Z,1012.85
2018-11-02T09:58:47.316Z,1012.88
2018-11-02T09:59:47.311Z,1012.95
2018-11-02T10:00:47.518Z,1013.00
2018-11-02T10:01:47.300Z,1013.04
2018-11-02T10:02:47.296Z,1013.02
2018-11-02T10:03:47.291Z,1013.09
2018-11-02T10:04:47.287Z,1013.14
2018-11-02T10:05:47.281Z,1013.10
2018-11-02T10:06:47.276Z,1013.14
2018-11-02T10:07:47.271Z,1013.22
2018-11-02T10:08:47.267Z,1013.20
2018-11-02T10:09:47.262Z,1013.22
2018-11-02T10:10:47.256Z,1013.24
2018-11-02T10:11:47.254Z,1013.30
2018-11-02T10:12:47.246Z,1013.33
2018-11-02T10:13:47.272Z,1013.39
2018-11-02T10:14:47.234Z,1013.39
2018-11-02T10:15:47.229Z,1013.38
2018-11-02T10:16:47.225Z,1013.40
2018-11-02T10:17:47.218Z,1013.44
2018-11-02T10:18:47.214Z,1013.45
2018-11-02T10:19:47.209Z,1013.47
2018-11-02T10:20:47.204Z,1013.51
2018-11-02T10:21:47.197Z,1013.51
2018-11-02T10:22:47.192Z,1013.49
2018-11-02T10:23:47.230Z,1013.50
2018-11-02T10:24:47.182Z,1013.48
2018-11-02T10:25:47.176Z,1013.47
2018-11-02T10:26:47.173Z,1013.52
2018-11-02T10:27:47.164Z,1013.51
2018-11-02T10:28:47.159Z,1013.53
2018-11-02T10:29:47.195Z,1013.49
2018-11-02T10:30:47.148Z,1013.52
2018-11-02T10:31:47.145Z,1013.56
2018-11-02T10:32:47.138Z,1013.55
2018-11-02T10:33:47.133Z,1013.50
2018-11-02T10:34:47.128Z,1013.49
2018-11-02T10:35:47.131Z,1013.52
2018-11-02T10:36:47.117Z,1013.59
2018-11-02T10:37:47.113Z,1013.57
2018-11-02T10:38:47.107Z,1013.57
2018-11-02T10:39:47.179Z,1013.58
2018-11-02T10:40:47.098Z,1013.62
2018-11-02T10:41:47.093Z,1013.65
2018-11-02T10:42:47.088Z,1013.63
2018-11-02T10:43:47.084Z,1013.65
2018-11-02T10:44:47.139Z,1013.63
2018-11-02T10:45:47.073Z,1013.65
2018-11-02T10:46:47.070Z,1013.68
2018-11-02T10:47:47.066Z,1013.69
2018-11-02T10:48:47.060Z,1013.68
2018-11-02T10:49:47.055Z,1013.73
2018-11-02T10:50:47.050Z,1013.77
2018-11-02T10:51:47.046Z,1013.77
2018-11-02T10:52:47.041Z,1013.86
2018-11-02T10:53:47.035Z,1013.87
2018-11-02T10:54:47.032Z,1013.87
2018-11-02T10:55:47.026Z,1013.90
2018-11-02T10:56:47.202Z,1013.89
2018-11-02T10:57:47.016Z,1013.92
2018-11-02T10:58:47.011Z,1013.92
2018-11-02T10:59:47.005Z,1013.92
2018-11-02T11:00:47.117Z,1013.92
2018-11-02T11:01:46.995Z,1014.00
2018-11-02T11:02:46.989Z,1013.98
2018-11-02T11:03:46.984Z,1013.96
2018-11-02T11:04:46.977Z,1014.03
2018-11-02T11:05:46.972Z,1014.05
2018-11-02T11:06:46.965Z,1014.06
2018-11-02T11:07:46.960Z,1014.12
2018-11-02T11:08:46.955Z,1014.13
2018-11-02T11:09:46.950Z,1014.12
2018-11-02T11:10:46.942Z,1014.11
2018-11-02T11:11:47.222Z,1014.11
2018-11-02T11:12:47.298Z,1014.10
2018-11-02T11:13:47.300Z,1014.12
2018-11-02T11:14:46.918Z,1014.12
2018-11-02T11:15:46.914Z,1014.14
2018-11-02T11:16:46.909Z,1014.10
2018-11-02T11:17:46.903Z,1014.14
2018-11-02T11:18:46.895Z,1014.14
2018-11-02T11:19:46.911Z,1014.11
2018-11-02T11:20:46.883Z,1014.11
2018-11-02T11:21:46.877Z,1014.09
2018-11-02T11:22:46.871Z,1014.11
2018-11-02T11:23:46.866Z,1014.15
2018-11-02T11:24:46.862Z,1014.14
2018-11-02T11:25:46.854Z,1014.17
2018-11-02T11:26:46.851Z,1014.16
2018-11-02T11:27:46.842Z,1014.17
2018-11-02T11:28:46.837Z,1014.22
2018-11-02T11:29:46.831Z,1014.21
2018-11-02T11:30:46.825Z,1014.24
2018-11-02T11:31:46.821Z,1014.22
2018-11-02T11:32:46.813Z,1014.23
2018-11-02T11:33:46.807Z,1014.26
2018-11-02T11:34:46.801Z,1014.31
2018-11-02T11:35:46.794Z,1014.36
2018-11-02T11:36:46.810Z,1014.33
2018-11-02T11:37:46.785Z,1014.35
2018-11-02T11:38:46.777Z,1014.37
2018-11-02T11:39:46.949Z,1014.37
2018-11-02T11:40:46.766Z,1014.38
2018-11-02T11:41:46.765Z,1014.38
2018-11-02T11:42:46.752Z,1014.38
2018-11-02T11:43:46.747Z,1014.41
2018-11-02T11:44:46.741Z,1014.40
2018-11-02T11:45:46.733Z,1014.46
2018-11-02T11:46:46.728Z,1014.42
2018-11-02T11:47:46.721Z,1014.41
2018-11-02T11:48:46.853Z,1014.41
2018-11-02T11:49:46.709Z,1014.43
2018-11-02T11:50:46.798Z,1014.45
2018-11-02T11:51:46.700Z,1014.43
2018-11-02T11:52:46.693Z,1014.42
2018-11-02T11:53:46.688Z,1014.43
2018-11-02T11:54:46.681Z,1014.42
2018-11-02T11:55:46.677Z,1014.46
2018-11-02T11:56:46.673Z,1014.46
2018-11-02T11:57:46.664Z,1014.44
2018-11-02T11:58:46.658Z,1014.46
2018-11-02T11:59:46.654Z,1014.45
2018-11-02T12:00:46.648Z,1014.49
2018-11-02T12:01:46.643Z,1014.47
2018-11-02T12:02:46.639Z,1014.46
2018-11-02T12:03:46.632Z,1014.47
2018-11-02T12:04:46.654Z,1014.53
2018-11-02T12:05:46.621Z,1014.49